sensor_id;sensor_type;location;lat;lon;timestamp;P1;durP1;ratioP1;P2;durP2;ratioP2
1991;SDS011;997;48.448;8.924;2023-08-31T04:14:14;3.60;;;3.30;;
1991;SDS011;997;48.448;8.924;2023-08-31T04:16:40;5.23;;;3.80;;
1991;SDS011;997;48.448;8.924;2023-08-31T04:19:08;2.70;;;2.50;;
1991;SDS011;997;48.448;8.924;2023-08-31T04:21:33;3.27;;;3.07;;
1991;SDS011;997;48.448;8.924;2023-08-31T04:23:59;4.10;;;2.80;;
1991;SDS011;997;48.448;8.924;2023-08-31T04:26:25;3.00;;;2.80;;
1991;SDS011;997;48.448;8.924;2023-08-31T04:28:51;2.87;;;2.50;;
1991;SDS011;997;48.448;8.924;2023-08-31T04:31:17;3.23;;;2.87;;
1991;SDS011;997;48.448;8.924;2023-08-31T04:34:04;3.23;;;2.93;;
1991;SDS011;997;48.448;8.924;2023-08-31T04:36:30;4.00;;;3.03;;
1991;SDS011;997;48.448;8.924;2023-08-31T04:38:56;6.70;;;3.27;;
1991;SDS011;997;48.448;8.924;2023-08-31T04:41:21;4.33;;;3.50;;
1991;SDS011;997;48.448;8.924;2023-08-31T04:43:47;3.00;;;2.60;;
1991;SDS011;997;48.448;8.924;2023-08-31T04:46:13;4.00;;;3.67;;
1991;SDS011;997;48.448;8.924;2023-08-31T04:48:39;3.47;;;3.23;;
1991;SDS011;997;48.448;8.924;2023-08-31T04:51:05;5.73;;;4.30;;
1991;SDS011;997;48.448;8.924;2023-08-31T04:53:31;3.90;;;3.07;;
1991;SDS011;997;48.448;8.924;2023-08-31T04:55:56;4.00;;;3.70;;
1991;SDS011;997;48.448;8.924;2023-08-31T04:58:22;3.80;;;3.50;;
1991;SDS011;997;48.448;8.924;2023-08-31T05:00:48;7.97;;;3.70;;
1991;SDS011;997;48.448;8.924;2023-08-31T05:03:14;3.73;;;3.40;;
1991;SDS011;997;48.448;8.924;2023-08-31T05:05:39;3.97;;;3.67;;
1991;SDS011;997;48.448;8.924;2023-08-31T05:08:07;3.50;;;3.20;;
1991;SDS011;997;48.448;8.924;2023-08-31T05:10:33;6.27;;;3.87;;
1991;SDS011;997;48.448;8.924;2023-08-31T05:12:59;4.47;;;3.20;;
1991;SDS011;997;48.448;8.924;2023-08-31T05:15:25;4.17;;;3.77;;
1991;SDS011;997;48.448;8.924;2023-08-31T05:17:52;4.27;;;3.80;;
1991;SDS011;997;48.448;8.924;2023-08-31T05:20:18;3.67;;;3.40;;
1991;SDS011;997;48.448;8.924;2023-08-31T05:22:44;3.30;;;3.00;;
1991;SDS011;997;48.448;8.924;2023-08-31T05:25:11;3.43;;;3.23;;
1991;SDS011;997;48.448;8.924;2023-08-31T05:27:37;4.93;;;3.50;;
1991;SDS011;997;48.448;8.924;2023-08-31T05:30:02;4.33;;;3.93;;
1991;SDS011;997;48.448;8.924;2023-08-31T05:32:28;5.30;;;3.80;;
1991;SDS011;997;48.448;8.924;2023-08-31T05:34:54;4.03;;;3.30;;
1991;SDS011;997;48.448;8.924;2023-08-31T05:37:20;5.40;;;4.90;;
1991;SDS011;997;48.448;8.924;2023-08-31T05:39:50;6.47;;;4.13;;
1991;SDS011;997;48.448;8.924;2023-08-31T05:42:16;3.43;;;3.13;;
1991;SDS011;997;48.448;8.924;2023-08-31T05:44:42;2.93;;;2.73;;
1991;SDS011;997;48.448;8.924;2023-08-31T05:47:08;3.70;;;3.40;;
1991;SDS011;997;48.448;8.924;2023-08-31T05:49:34;6.43;;;3.93;;
1991;SDS011;997;48.448;8.924;2023-08-31T05:52:00;3.40;;;2.33;;
1991;SDS011;997;48.448;8.924;2023-08-31T05:54:26;3.90;;;3.30;;
1991;SDS011;997;48.448;8.924;2023-08-31T05:56:52;5.97;;;3.30;;
1991;SDS011;997;48.448;8.924;2023-08-31T05:59:18;2.77;;;2.57;;
1991;SDS011;997;48.448;8.924;2023-08-31T06:01:44;4.70;;;2.70;;
1991;SDS011;997;48.448;8.924;2023-08-31T06:04:09;5.67;;;5.17;;
1991;SDS011;997;48.448;8.924;2023-08-31T06:10:20;2.90;;;2.70;;
1991;SDS011;997;48.448;8.924;2023-08-31T06:12:48;4.07;;;3.50;;
1991;SDS011;997;48.448;8.924;2023-08-31T06:15:14;3.23;;;2.93;;
1991;SDS011;997;48.448;8.924;2023-08-31T06:17:40;3.30;;;3.00;;
1991;SDS011;997;48.448;8.924;2023-08-31T06:20:06;3.87;;;2.63;;
1991;SDS011;997;48.448;8.924;2023-08-31T06:22:33;5.40;;;3.20;;
1991;SDS011;997;48.448;8.924;2023-08-31T06:24:59;3.33;;;3.03;;
1991;SDS011;997;48.448;8.924;2023-08-31T06:27:25;4.13;;;2.67;;
1991;SDS011;997;48.448;8.924;2023-08-31T06:30:15;3.23;;;3.00;;
1991;SDS011;997;48.448;8.924;2023-08-31T06:33:29;2.90;;;2.70;;
1991;SDS011;997;48.448;8.924;2023-08-31T06:36:04;3.50;;;2.80;;
1991;SDS011;997;48.448;8.924;2023-08-31T06:38:30;4.97;;;2.83;;
1991;SDS011;997;48.448;8.924;2023-08-31T06:40:55;3.07;;;2.70;;
1991;SDS011;997;48.448;8.924;2023-08-31T06:43:24;3.83;;;3.40;;
1991;SDS011;997;48.448;8.924;2023-08-31T06:45:53;2.67;;;2.47;;
1991;SDS011;997;48.448;8.924;2023-08-31T06:48:19;4.50;;;3.40;;
1991;SDS011;997;48.448;8.924;2023-08-31T06:50:45;3.10;;;2.73;;
1991;SDS011;997;48.448;8.924;2023-08-31T06:53:27;4.50;;;2.90;;
1991;SDS011;997;48.448;8.924;2023-08-31T06:55:52;3.97;;;3.77;;
1991;SDS011;997;48.448;8.924;2023-08-31T06:58:18;3.00;;;2.40;;
1991;SDS011;997;48.448;8.924;2023-08-31T07:00:43;7.07;;;2.80;;
1991;SDS011;997;48.448;8.924;2023-08-31T07:03:09;4.40;;;2.90;;
1991;SDS011;997;48.448;8.924;2023-08-31T07:05:37;4.07;;;3.07;;
1991;SDS011;997;48.448;8.924;2023-08-31T07:08:07;5.40;;;3.70;;
1991;SDS011;997;48.448;8.924;2023-08-31T07:10:33;2.70;;;2.50;;
1991;SDS011;997;48.448;8.924;2023-08-31T07:13:01;12.27;;;3.70;;
1991;SDS011;997;48.448;8.924;2023-08-31T07:15:28;3.93;;;3.10;;
1991;SDS011;997;48.448;8.924;2023-08-31T07:17:54;2.90;;;2.67;;
1991;SDS011;997;48.448;8.924;2023-08-31T07:20:20;2.40;;;2.20;;
1991;SDS011;997;48.448;8.924;2023-08-31T07:22:46;9.90;;;3.30;;
1991;SDS011;997;48.448;8.924;2023-08-31T07:25:12;3.67;;;2.37;;
1991;SDS011;997;48.448;8.924;2023-08-31T07:27:37;2.83;;;2.20;;
1991;SDS011;997;48.448;8.924;2023-08-31T07:30:03;5.87;;;2.90;;
1991;SDS011;997;48.448;8.924;2023-08-31T07:32:30;3.40;;;3.10;;
1991;SDS011;997;48.448;8.924;2023-08-31T07:34:56;4.60;;;2.90;;
1991;SDS011;997;48.448;8.924;2023-08-31T07:37:22;5.93;;;3.47;;
1991;SDS011;997;48.448;8.924;2023-08-31T07:39:48;2.97;;;2.00;;
1991;SDS011;997;48.448;8.924;2023-08-31T07:42:13;5.20;;;2.97;;
1991;SDS011;997;48.448;8.924;2023-08-31T07:44:39;2.63;;;1.93;;
1991;SDS011;997;48.448;8.924;2023-08-31T07:47:06;2.40;;;2.20;;
1991;SDS011;997;48.448;8.924;2023-08-31T07:49:33;3.00;;;2.80;;
1991;SDS011;997;48.448;8.924;2023-08-31T07:51:58;3.00;;;2.20;;
1991;SDS011;997;48.448;8.924;2023-08-31T07:54:24;2.63;;;2.43;;
1991;SDS011;997;48.448;8.924;2023-08-31T07:56:51;3.63;;;2.23;;
1991;SDS011;997;48.448;8.924;2023-08-31T07:59:17;3.50;;;2.07;;
1991;SDS011;997;48.448;8.924;2023-08-31T08:01:43;5.50;;;2.37;;
1991;SDS011;997;48.448;8.924;2023-08-31T08:04:10;5.10;;;2.30;;
1991;SDS011;997;48.448;8.924;2023-08-31T08:06:36;2.23;;;2.03;;
1991;SDS011;997;48.448;8.924;2023-08-31T08:09:02;2.30;;;2.10;;
1991;SDS011;997;48.448;8.924;2023-08-31T08:11:29;2.37;;;1.93;;
1991;SDS011;997;48.448;8.924;2023-08-31T08:13:56;3.73;;;2.13;;
1991;SDS011;997;48.448;8.924;2023-08-31T08:16:22;3.07;;;2.27;;
1991;SDS011;997;48.448;8.924;2023-08-31T08:18:47;3.60;;;2.00;;
1991;SDS011;997;48.448;8.924;2023-08-31T08:21:14;2.47;;;2.27;;
1991;SDS011;997;48.448;8.924;2023-08-31T08:23:40;2.60;;;2.27;;
1991;SDS011;997;48.448;8.924;2023-08-31T08:26:05;3.40;;;2.13;;
1991;SDS011;997;48.448;8.924;2023-08-31T08:28:31;2.30;;;2.10;;
1991;SDS011;997;48.448;8.924;2023-08-31T08:31:00;7.90;;;2.40;;
1991;SDS011;997;48.448;8.924;2023-08-31T08:33:31;2.43;;;2.00;;
1991;SDS011;997;48.448;8.924;2023-08-31T08:35:57;2.63;;;1.80;;
1991;SDS011;997;48.448;8.924;2023-08-31T08:38:24;1.77;;;1.67;;
1991;SDS011;997;48.448;8.924;2023-08-31T08:40:50;3.50;;;2.23;;
1991;SDS011;997;48.448;8.924;2023-08-31T08:43:16;3.27;;;2.00;;
1991;SDS011;997;48.448;8.924;2023-08-31T08:45:47;3.27;;;2.00;;
1991;SDS011;997;48.448;8.924;2023-08-31T08:48:14;1.73;;;1.47;;
1991;SDS011;997;48.448;8.924;2023-08-31T08:50:40;4.27;;;1.77;;
1991;SDS011;997;48.448;8.924;2023-08-31T08:53:06;3.50;;;1.67;;
1991;SDS011;997;48.448;8.924;2023-08-31T08:55:32;3.63;;;1.70;;
1991;SDS011;997;48.448;8.924;2023-08-31T08:57:58;2.33;;;1.90;;
1991;SDS011;997;48.448;8.924;2023-08-31T09:00:28;2.70;;;2.10;;
1991;SDS011;997;48.448;8.924;2023-08-31T09:02:55;2.00;;;1.63;;
1991;SDS011;997;48.448;8.924;2023-08-31T09:05:21;3.40;;;2.37;;
1991;SDS011;997;48.448;8.924;2023-08-31T09:08:00;2.87;;;1.80;;
1991;SDS011;997;48.448;8.924;2023-08-31T09:10:34;2.57;;;1.87;;
1991;SDS011;997;48.448;8.924;2023-08-31T09:13:05;5.23;;;2.23;;
1991;SDS011;997;48.448;8.924;2023-08-31T09:15:59;3.33;;;2.03;;
1991;SDS011;997;48.448;8.924;2023-08-31T09:18:26;3.90;;;2.43;;
1991;SDS011;997;48.448;8.924;2023-08-31T09:20:53;2.43;;;1.77;;
1991;SDS011;997;48.448;8.924;2023-08-31T09:23:21;2.57;;;2.37;;
1991;SDS011;997;48.448;8.924;2023-08-31T09:25:48;4.30;;;2.33;;
1991;SDS011;997;48.448;8.924;2023-08-31T09:28:15;2.20;;;1.93;;
1991;SDS011;997;48.448;8.924;2023-08-31T09:30:42;3.50;;;1.83;;
1991;SDS011;997;48.448;8.924;2023-08-31T09:33:08;2.13;;;1.57;;
1991;SDS011;997;48.448;8.924;2023-08-31T09:35:41;3.70;;;1.90;;
1991;SDS011;997;48.448;8.924;2023-08-31T09:38:15;6.07;;;1.80;;
1991;SDS011;997;48.448;8.924;2023-08-31T09:40:41;3.40;;;1.97;;
1991;SDS011;997;48.448;8.924;2023-08-31T09:43:08;2.23;;;1.80;;
1991;SDS011;997;48.448;8.924;2023-08-31T09:45:34;3.33;;;2.40;;
1991;SDS011;997;48.448;8.924;2023-08-31T09:48:02;3.60;;;2.20;;
1991;SDS011;997;48.448;8.924;2023-08-31T09:50:29;2.60;;;1.77;;
1991;SDS011;997;48.448;8.924;2023-08-31T09:52:56;5.53;;;2.47;;
1991;SDS011;997;48.448;8.924;2023-08-31T09:55:34;2.87;;;2.30;;
1991;SDS011;997;48.448;8.924;2023-08-31T09:58:03;7.87;;;2.30;;
1991;SDS011;997;48.448;8.924;2023-08-31T10:00:33;1.73;;;1.63;;
1991;SDS011;997;48.448;8.924;2023-08-31T10:03:02;2.80;;;1.97;;
1991;SDS011;997;48.448;8.924;2023-08-31T10:05:30;2.83;;;2.63;;
1991;SDS011;997;48.448;8.924;2023-08-31T10:07:59;3.90;;;2.27;;
1991;SDS011;997;48.448;8.924;2023-08-31T10:10:26;4.43;;;1.83;;
1991;SDS011;997;48.448;8.924;2023-08-31T10:12:55;3.23;;;2.40;;
1991;SDS011;997;48.448;8.924;2023-08-31T10:15:23;3.23;;;1.70;;
1991;SDS011;997;48.448;8.924;2023-08-31T10:17:56;5.20;;;1.90;;
1991;SDS011;997;48.448;8.924;2023-08-31T10:20:23;2.10;;;1.67;;
1991;SDS011;997;48.448;8.924;2023-08-31T10:22:48;5.00;;;2.47;;
1991;SDS011;997;48.448;8.924;2023-08-31T10:25:14;2.37;;;1.87;;
1991;SDS011;997;48.448;8.924;2023-08-31T10:27:43;2.83;;;1.90;;
1991;SDS011;997;48.448;8.924;2023-08-31T10:40:41;3.30;;;1.83;;
1991;SDS011;997;48.448;8.924;2023-08-31T10:43:24;4.33;;;2.20;;
1991;SDS011;997;48.448;8.924;2023-08-31T10:45:50;3.27;;;2.10;;
1991;SDS011;997;48.448;8.924;2023-08-31T10:48:16;1.50;;;1.40;;
1991;SDS011;997;48.448;8.924;2023-08-31T10:50:43;3.40;;;2.07;;
1991;SDS011;997;48.448;8.924;2023-08-31T10:53:12;4.67;;;2.00;;
1991;SDS011;997;48.448;8.924;2023-08-31T10:55:50;2.27;;;2.07;;
1991;SDS011;997;48.448;8.924;2023-08-31T10:58:17;2.50;;;1.77;;
1991;SDS011;997;48.448;8.924;2023-08-31T11:00:47;3.00;;;2.40;;
1991;SDS011;997;48.448;8.924;2023-08-31T11:03:21;2.87;;;2.13;;
1991;SDS011;997;48.448;8.924;2023-08-31T11:05:53;3.20;;;2.20;;
1991;SDS011;997;48.448;8.924;2023-08-31T11:08:25;4.73;;;1.90;;
1991;SDS011;997;48.448;8.924;2023-08-31T11:10:54;2.37;;;2.00;;
1991;SDS011;997;48.448;8.924;2023-08-31T11:13:20;4.20;;;2.30;;
1991;SDS011;997;48.448;8.924;2023-08-31T11:15:46;4.10;;;1.87;;
1991;SDS011;997;48.448;8.924;2023-08-31T11:18:12;3.47;;;2.53;;
1991;SDS011;997;48.448;8.924;2023-08-31T11:20:39;2.43;;;1.70;;
1991;SDS011;997;48.448;8.924;2023-08-31T11:23:05;2.93;;;1.83;;
1991;SDS011;997;48.448;8.924;2023-08-31T11:25:31;7.63;;;2.73;;
1991;SDS011;997;48.448;8.924;2023-08-31T11:27:58;2.80;;;1.77;;
1991;SDS011;997;48.448;8.924;2023-08-31T11:30:25;2.47;;;1.80;;
1991;SDS011;997;48.448;8.924;2023-08-31T11:32:51;5.13;;;2.43;;
1991;SDS011;997;48.448;8.924;2023-08-31T11:35:18;2.17;;;1.97;;
1991;SDS011;997;48.448;8.924;2023-08-31T11:37:48;1.60;;;1.47;;
1991;SDS011;997;48.448;8.924;2023-08-31T11:40:15;3.37;;;2.40;;
1991;SDS011;997;48.448;8.924;2023-08-31T11:42:40;3.93;;;2.10;;
1991;SDS011;997;48.448;8.924;2023-08-31T11:45:07;4.17;;;2.20;;
1991;SDS011;997;48.448;8.924;2023-08-31T11:47:34;4.67;;;2.03;;
1991;SDS011;997;48.448;8.924;2023-08-31T11:50:00;3.73;;;1.77;;
1991;SDS011;997;48.448;8.924;2023-08-31T11:52:30;3.63;;;2.00;;
1991;SDS011;997;48.448;8.924;2023-08-31T11:54:56;3.77;;;1.90;;
1991;SDS011;997;48.448;8.924;2023-08-31T11:57:25;3.80;;;2.47;;
1991;SDS011;997;48.448;8.924;2023-08-31T11:59:52;2.10;;;1.90;;
1991;SDS011;997;48.448;8.924;2023-08-31T12:02:18;3.53;;;2.57;;
1991;SDS011;997;48.448;8.924;2023-08-31T12:04:45;1.90;;;1.70;;
1991;SDS011;997;48.448;8.924;2023-08-31T12:07:11;3.73;;;3.27;;
1991;SDS011;997;48.448;8.924;2023-08-31T12:09:46;3.07;;;1.93;;
1991;SDS011;997;48.448;8.924;2023-08-31T12:12:17;4.00;;;1.70;;
1991;SDS011;997;48.448;8.924;2023-08-31T12:14:45;4.13;;;2.60;;
1991;SDS011;997;48.448;8.924;2023-08-31T12:17:11;2.27;;;2.07;;
1991;SDS011;997;48.448;8.924;2023-08-31T12:19:38;5.27;;;2.07;;
1991;SDS011;997;48.448;8.924;2023-08-31T12:22:04;5.30;;;2.30;;
1991;SDS011;997;48.448;8.924;2023-08-31T12:24:38;3.47;;;2.30;;
1991;SDS011;997;48.448;8.924;2023-08-31T12:27:05;2.50;;;1.93;;
1991;SDS011;997;48.448;8.924;2023-08-31T12:29:31;5.67;;;2.43;;
1991;SDS011;997;48.448;8.924;2023-08-31T12:31:57;5.20;;;2.20;;
1991;SDS011;997;48.448;8.924;2023-08-31T12:34:23;2.10;;;1.80;;
1991;SDS011;997;48.448;8.924;2023-08-31T12:36:48;2.00;;;1.90;;
1991;SDS011;997;48.448;8.924;2023-08-31T12:39:14;1.90;;;1.70;;
1991;SDS011;997;48.448;8.924;2023-08-31T12:41:40;6.43;;;2.13;;
1991;SDS011;997;48.448;8.924;2023-08-31T12:44:06;2.90;;;2.37;;
1991;SDS011;997;48.448;8.924;2023-08-31T12:46:32;4.40;;;2.17;;
1991;SDS011;997;48.448;8.924;2023-08-31T12:48:59;2.60;;;1.63;;
1991;SDS011;997;48.448;8.924;2023-08-31T12:51:26;2.27;;;1.70;;
1991;SDS011;997;48.448;8.924;2023-08-31T12:53:52;2.20;;;1.73;;
1991;SDS011;997;48.448;8.924;2023-08-31T12:56:17;2.90;;;2.13;;
1991;SDS011;997;48.448;8.924;2023-08-31T12:58:49;2.93;;;1.90;;
1991;SDS011;997;48.448;8.924;2023-08-31T13:01:16;2.30;;;1.87;;
1991;SDS011;997;48.448;8.924;2023-08-31T13:03:42;4.77;;;2.07;;
1991;SDS011;997;48.448;8.924;2023-08-31T13:06:08;3.23;;;2.10;;
1991;SDS011;997;48.448;8.924;2023-08-31T13:08:34;4.07;;;2.20;;
1991;SDS011;997;48.448;8.924;2023-08-31T13:11:00;4.03;;;1.90;;
1991;SDS011;997;48.448;8.924;2023-08-31T13:13:25;5.13;;;2.17;;
1991;SDS011;997;48.448;8.924;2023-08-31T13:15:51;2.90;;;2.13;;
1991;SDS011;997;48.448;8.924;2023-08-31T13:18:17;3.20;;;2.13;;
1991;SDS011;997;48.448;8.924;2023-08-31T13:20:50;3.20;;;2.33;;
1991;SDS011;997;48.448;8.924;2023-08-31T13:23:16;3.40;;;2.30;;
1991;SDS011;997;48.448;8.924;2023-08-31T13:25:42;2.90;;;2.30;;
1991;SDS011;997;48.448;8.924;2023-08-31T13:28:08;2.20;;;1.50;;
1991;SDS011;997;48.448;8.924;2023-08-31T13:30:34;4.13;;;2.53;;
1991;SDS011;997;48.448;8.924;2023-08-31T13:33:00;2.37;;;1.97;;
1991;SDS011;997;48.448;8.924;2023-08-31T13:35:26;2.93;;;2.40;;
1991;SDS011;997;48.448;8.924;2023-08-31T13:37:52;2.70;;;2.20;;
1991;SDS011;997;48.448;8.924;2023-08-31T13:40:18;3.57;;;2.37;;
1991;SDS011;997;48.448;8.924;2023-08-31T13:42:57;4.30;;;2.23;;
1991;SDS011;997;48.448;8.924;2023-08-31T13:45:28;7.33;;;2.40;;
1991;SDS011;997;48.448;8.924;2023-08-31T13:47:55;2.80;;;2.10;;
1991;SDS011;997;48.448;8.924;2023-08-31T13:50:21;3.03;;;2.17;;
1991;SDS011;997;48.448;8.924;2023-08-31T13:52:47;5.43;;;2.50;;
1991;SDS011;997;48.448;8.924;2023-08-31T13:55:12;2.50;;;2.03;;
1991;SDS011;997;48.448;8.924;2023-08-31T13:57:41;3.77;;;2.33;;
1991;SDS011;997;48.448;8.924;2023-08-31T14:00:07;2.50;;;2.00;;
1991;SDS011;997;48.448;8.924;2023-08-31T14:02:34;3.27;;;2.27;;
1991;SDS011;997;48.448;8.924;2023-08-31T14:05:01;4.03;;;2.77;;
1991;SDS011;997;48.448;8.924;2023-08-31T14:07:27;3.30;;;2.20;;
1991;SDS011;997;48.448;8.924;2023-08-31T14:09:53;2.27;;;2.00;;
1991;SDS011;997;48.448;8.924;2023-08-31T14:12:18;6.63;;;2.40;;
1991;SDS011;997;48.448;8.924;2023-08-31T14:14:45;3.10;;;1.83;;
1991;SDS011;997;48.448;8.924;2023-08-31T14:17:11;4.60;;;3.03;;
1991;SDS011;997;48.448;8.924;2023-08-31T14:19:37;2.20;;;1.80;;
1991;SDS011;997;48.448;8.924;2023-08-31T14:22:04;3.60;;;2.27;;
1991;SDS011;997;48.448;8.924;2023-08-31T14:24:30;2.63;;;2.00;;
1991;SDS011;997;48.448;8.924;2023-08-31T14:26:56;4.30;;;2.27;;
1991;SDS011;997;48.448;8.924;2023-08-31T14:29:22;6.27;;;2.63;;
1991;SDS011;997;48.448;8.924;2023-08-31T14:31:48;8.90;;;2.17;;
1991;SDS011;997;48.448;8.924;2023-08-31T14:34:14;2.30;;;1.97;;
1991;SDS011;997;48.448;8.924;2023-08-31T14:36:39;3.80;;;2.03;;
1991;SDS011;997;48.448;8.924;2023-08-31T14:39:05;3.40;;;2.00;;
1991;SDS011;997;48.448;8.924;2023-08-31T14:41:31;3.23;;;2.33;;
1991;SDS011;997;48.448;8.924;2023-08-31T14:43:56;5.63;;;2.40;;
1991;SDS011;997;48.448;8.924;2023-08-31T14:46:22;3.13;;;2.30;;
1991;SDS011;997;48.448;8.924;2023-08-31T14:48:49;4.03;;;2.60;;
1991;SDS011;997;48.448;8.924;2023-08-31T14:51:15;2.70;;;2.10;;
1991;SDS011;997;48.448;8.924;2023-08-31T14:53:41;3.10;;;2.53;;
1991;SDS011;997;48.448;8.924;2023-08-31T14:56:07;2.47;;;1.90;;
1991;SDS011;997;48.448;8.924;2023-08-31T14:58:33;4.00;;;1.97;;
1991;SDS011;997;48.448;8.924;2023-08-31T15:00:59;2.70;;;2.50;;
1991;SDS011;997;48.448;8.924;2023-08-31T15:03:25;6.20;;;2.30;;
1991;SDS011;997;48.448;8.924;2023-08-31T15:05:51;3.27;;;2.10;;
1991;SDS011;997;48.448;8.924;2023-08-31T15:08:17;3.90;;;2.03;;
1991;SDS011;997;48.448;8.924;2023-08-31T15:10:42;2.40;;;2.03;;
1991;SDS011;997;48.448;8.924;2023-08-31T15:13:08;3.00;;;2.20;;
1991;SDS011;997;48.448;8.924;2023-08-31T15:15:34;3.03;;;2.20;;
1991;SDS011;997;48.448;8.924;2023-08-31T15:17:59;5.23;;;2.47;;
1991;SDS011;997;48.448;8.924;2023-08-31T15:20:33;3.73;;;2.17;;
1991;SDS011;997;48.448;8.924;2023-08-31T15:22:58;6.00;;;2.90;;
1991;SDS011;997;48.448;8.924;2023-08-31T15:25:24;3.17;;;1.87;;
1991;SDS011;997;48.448;8.924;2023-08-31T15:27:50;7.33;;;2.73;;
1991;SDS011;997;48.448;8.924;2023-08-31T15:30:15;5.00;;;2.80;;
1991;SDS011;997;48.448;8.924;2023-08-31T15:32:41;7.40;;;4.30;;
1991;SDS011;997;48.448;8.924;2023-08-31T15:35:07;4.83;;;3.00;;
1991;SDS011;997;48.448;8.924;2023-08-31T15:37:32;4.33;;;2.43;;
1991;SDS011;997;48.448;8.924;2023-08-31T15:39:58;5.63;;;2.50;;
1991;SDS011;997;48.448;8.924;2023-08-31T15:42:27;4.03;;;2.33;;
1991;SDS011;997;48.448;8.924;2023-08-31T15:44:53;3.50;;;2.37;;
1991;SDS011;997;48.448;8.924;2023-08-31T15:47:20;3.80;;;2.40;;
1991;SDS011;997;48.448;8.924;2023-08-31T15:49:47;3.30;;;1.90;;
1991;SDS011;997;48.448;8.924;2023-08-31T15:52:12;2.60;;;2.27;;
1991;SDS011;997;48.448;8.924;2023-08-31T15:54:38;3.33;;;1.80;;
1991;SDS011;997;48.448;8.924;2023-08-31T15:57:04;7.53;;;1.93;;
1991;SDS011;997;48.448;8.924;2023-08-31T15:59:30;3.10;;;2.20;;
1991;SDS011;997;48.448;8.924;2023-08-31T16:01:56;3.83;;;2.40;;
1991;SDS011;997;48.448;8.924;2023-08-31T16:04:22;3.70;;;3.07;;
1991;SDS011;997;48.448;8.924;2023-08-31T16:06:48;4.20;;;2.03;;
1991;SDS011;997;48.448;8.924;2023-08-31T16:09:14;6.83;;;2.50;;
1991;SDS011;997;48.448;8.924;2023-08-31T16:11:40;3.07;;;2.30;;
1991;SDS011;997;48.448;8.924;2023-08-31T16:14:06;3.73;;;2.30;;
1991;SDS011;997;48.448;8.924;2023-08-31T16:16:32;2.63;;;2.20;;
1991;SDS011;997;48.448;8.924;2023-08-31T16:18:57;3.40;;;2.00;;
1991;SDS011;997;48.448;8.924;2023-08-31T16:21:23;4.00;;;2.10;;
1991;SDS011;997;48.448;8.924;2023-08-31T16:23:49;2.10;;;1.90;;
1991;SDS011;997;48.448;8.924;2023-08-31T16:26:15;9.67;;;2.30;;
1991;SDS011;997;48.448;8.924;2023-08-31T16:28:40;3.67;;;2.27;;
1991;SDS011;997;48.448;8.924;2023-08-31T16:31:06;2.37;;;2.17;;
1991;SDS011;997;48.448;8.924;2023-08-31T16:33:32;2.57;;;2.37;;
1991;SDS011;997;48.448;8.924;2023-08-31T16:36:01;2.83;;;2.20;;
1991;SDS011;997;48.448;8.924;2023-08-31T16:38:28;4.17;;;2.00;;
1991;SDS011;997;48.448;8.924;2023-08-31T16:40:54;2.70;;;2.20;;
1991;SDS011;997;48.448;8.924;2023-08-31T16:43:20;3.50;;;2.70;;
1991;SDS011;997;48.448;8.924;2023-08-31T16:45:46;3.10;;;2.73;;
1991;SDS011;997;48.448;8.924;2023-08-31T16:48:12;3.50;;;2.00;;
1991;SDS011;997;48.448;8.924;2023-08-31T16:50:38;5.57;;;2.20;;
1991;SDS011;997;48.448;8.924;2023-08-31T16:53:04;4.70;;;2.80;;
1991;SDS011;997;48.448;8.924;2023-08-31T16:55:33;3.40;;;2.20;;
1991;SDS011;997;48.448;8.924;2023-08-31T16:58:03;2.53;;;2.23;;
1991;SDS011;997;48.448;8.924;2023-08-31T17:00:28;3.30;;;2.37;;
1991;SDS011;997;48.448;8.924;2023-08-31T17:02:54;3.33;;;2.30;;
1991;SDS011;997;48.448;8.924;2023-08-31T17:05:20;3.40;;;2.20;;
1991;SDS011;997;48.448;8.924;2023-08-31T17:07:46;7.20;;;2.50;;
1991;SDS011;997;48.448;8.924;2023-08-31T17:10:12;3.00;;;1.80;;
1991;SDS011;997;48.448;8.924;2023-08-31T17:12:38;4.40;;;2.53;;
1991;SDS011;997;48.448;8.924;2023-08-31T17:15:05;5.70;;;2.30;;
1991;SDS011;997;48.448;8.924;2023-08-31T17:17:33;5.50;;;2.13;;
1991;SDS011;997;48.448;8.924;2023-08-31T17:19:58;3.20;;;2.03;;
1991;SDS011;997;48.448;8.924;2023-08-31T17:22:25;2.13;;;1.93;;
1991;SDS011;997;48.448;8.924;2023-08-31T17:24:51;4.20;;;3.23;;
1991;SDS011;997;48.448;8.924;2023-08-31T17:27:18;4.00;;;3.70;;
1991;SDS011;997;48.448;8.924;2023-08-31T17:29:44;6.03;;;3.03;;
1991;SDS011;997;48.448;8.924;2023-08-31T17:32:10;3.53;;;2.30;;
1991;SDS011;997;48.448;8.924;2023-08-31T17:34:36;3.17;;;2.57;;
1991;SDS011;997;48.448;8.924;2023-08-31T17:37:02;7.47;;;2.63;;
1991;SDS011;997;48.448;8.924;2023-08-31T17:39:28;7.00;;;2.47;;
1991;SDS011;997;48.448;8.924;2023-08-31T17:41:54;3.50;;;2.20;;
1991;SDS011;997;48.448;8.924;2023-08-31T17:44:19;4.80;;;2.77;;
1991;SDS011;997;48.448;8.924;2023-08-31T17:46:49;5.40;;;3.20;;
1991;SDS011;997;48.448;8.924;2023-08-31T17:49:15;4.90;;;2.00;;
1991;SDS011;997;48.448;8.924;2023-08-31T17:51:41;3.03;;;2.50;;
1991;SDS011;997;48.448;8.924;2023-08-31T17:54:10;6.13;;;2.43;;
1991;SDS011;997;48.448;8.924;2023-08-31T17:56:35;4.30;;;2.50;;
1991;SDS011;997;48.448;8.924;2023-08-31T17:59:01;5.00;;;3.40;;
1991;SDS011;997;48.448;8.924;2023-08-31T18:01:29;5.10;;;3.37;;
1991;SDS011;997;48.448;8.924;2023-08-31T18:03:54;3.83;;;2.57;;
1991;SDS011;997;48.448;8.924;2023-08-31T18:06:20;4.40;;;3.10;;
1991;SDS011;997;48.448;8.924;2023-08-31T18:08:46;4.30;;;2.77;;
1991;SDS011;997;48.448;8.924;2023-08-31T18:11:12;6.07;;;3.10;;
1991;SDS011;997;48.448;8.924;2023-08-31T18:13:38;5.50;;;3.17;;
1991;SDS011;997;48.448;8.924;2023-08-31T18:16:04;5.70;;;3.10;;
1991;SDS011;997;48.448;8.924;2023-08-31T18:18:29;3.30;;;2.97;;
1991;SDS011;997;48.448;8.924;2023-08-31T18:20:55;3.00;;;2.67;;
1991;SDS011;997;48.448;8.924;2023-08-31T18:23:26;4.43;;;2.87;;
1991;SDS011;997;48.448;8.924;2023-08-31T18:25:52;4.63;;;4.10;;
1991;SDS011;997;48.448;8.924;2023-08-31T18:28:17;17.27;;;12.83;;
1991;SDS011;997;48.448;8.924;2023-08-31T18:30:56;10.70;;;8.50;;
1991;SDS011;997;48.448;8.924;2023-08-31T18:33:25;7.23;;;4.17;;
1991;SDS011;997;48.448;8.924;2023-08-31T18:35:52;6.13;;;4.80;;
1991;SDS011;997;48.448;8.924;2023-08-31T18:38:19;5.57;;;4.93;;
1991;SDS011;997;48.448;8.924;2023-08-31T18:40:45;4.07;;;3.37;;
1991;SDS011;997;48.448;8.924;2023-08-31T18:43:11;4.40;;;2.53;;
1991;SDS011;997;48.448;8.924;2023-08-31T18:45:47;3.73;;;3.17;;
1991;SDS011;997;48.448;8.924;2023-08-31T18:48:13;3.10;;;2.67;;
1991;SDS011;997;48.448;8.924;2023-08-31T18:50:43;11.90;;;7.67;;
1991;SDS011;997;48.448;8.924;2023-08-31T18:53:11;13.97;;;12.20;;
1991;SDS011;997;48.448;8.924;2023-08-31T18:55:37;15.00;;;11.20;;
1991;SDS011;997;48.448;8.924;2023-08-31T18:58:03;5.43;;;4.57;;
1991;SDS011;997;48.448;8.924;2023-08-31T19:00:29;4.77;;;4.20;;
1991;SDS011;997;48.448;8.924;2023-08-31T19:02:55;4.70;;;4.30;;
1991;SDS011;997;48.448;8.924;2023-08-31T19:05:22;5.00;;;4.50;;
1991;SDS011;997;48.448;8.924;2023-08-31T19:07:51;5.40;;;4.90;;
1991;SDS011;997;48.448;8.924;2023-08-31T19:10:18;4.33;;;3.93;;
1991;SDS011;997;48.448;8.924;2023-08-31T19:12:44;4.57;;;4.00;;
1991;SDS011;997;48.448;8.924;2023-08-31T19:15:12;7.40;;;4.10;;
1991;SDS011;997;48.448;8.924;2023-08-31T19:17:39;3.60;;;3.33;;
1991;SDS011;997;48.448;8.924;2023-08-31T19:20:05;3.80;;;3.00;;
1991;SDS011;997;48.448;8.924;2023-08-31T19:22:33;4.63;;;3.43;;
1991;SDS011;997;48.448;8.924;2023-08-31T19:24:59;3.00;;;2.80;;
1991;SDS011;997;48.448;8.924;2023-08-31T19:27:25;4.07;;;3.00;;
1991;SDS011;997;48.448;8.924;2023-08-31T19:29:51;3.33;;;2.53;;
1991;SDS011;997;48.448;8.924;2023-08-31T19:32:16;4.37;;;3.20;;
1991;SDS011;997;48.448;8.924;2023-08-31T19:34:42;3.77;;;2.70;;
1991;SDS011;997;48.448;8.924;2023-08-31T19:37:08;3.20;;;2.90;;
1991;SDS011;997;48.448;8.924;2023-08-31T19:39:34;5.53;;;3.27;;
1991;SDS011;997;48.448;8.924;2023-08-31T19:41:59;3.70;;;2.87;;
1991;SDS011;997;48.448;8.924;2023-08-31T19:44:25;3.47;;;3.17;;
1991;SDS011;997;48.448;8.924;2023-08-31T19:46:51;3.63;;;2.60;;
1991;SDS011;997;48.448;8.924;2023-08-31T19:49:17;3.47;;;2.37;;
1991;SDS011;997;48.448;8.924;2023-08-31T19:51:43;6.63;;;3.17;;
1991;SDS011;997;48.448;8.924;2023-08-31T19:54:08;5.23;;;2.57;;
1991;SDS011;997;48.448;8.924;2023-08-31T19:56:38;4.00;;;2.60;;